createdAt,value
2023-06-04T00:05:21.278Z,14.7
2023-06-04T00:15:27.328Z,14.7
2023-06-04T00:25:33.384Z,14.7
2023-06-04T00:35:39.403Z,14.9
2023-06-04T00:55:51.484Z,14.9
2023-06-04T01:05:57.558Z,14.9
2023-06-04T01:16:03.607Z,14.9
2023-06-04T01:36:15.690Z,14.9
2023-06-04T01:46:21.800Z,14.9
2023-06-04T02:16:39.878Z,14.9
2023-06-04T02:26:45.892Z,14.9
2023-06-04T02:36:51.975Z,15.1
2023-06-04T02:46:57.983Z,15.1
2023-06-04T02:57:04.040Z,15.1
2023-06-04T03:07:10.064Z,15.1
2023-06-04T03:17:16.132Z,15.1
2023-06-04T03:27:22.177Z,15.1
2023-06-04T03:37:28.229Z,15.1
2023-06-04T03:47:34.294Z,15.1
2023-06-04T03:57:40.311Z,15.1
2023-06-04T04:07:46.367Z,15.1
2023-06-04T04:17:52.455Z,15.1
2023-06-04T04:27:58.481Z,15.1
2023-06-04T04:38:04.544Z,15.1
2023-06-04T04:48:10.533Z,15.1
2023-06-04T04:58:16.818Z,15.1
2023-06-04T05:08:22.646Z,15.3
2023-06-04T05:18:28.677Z,15.3
2023-06-04T05:28:34.732Z,15.3
2023-06-04T05:38:40.748Z,15.3
2023-06-04T05:48:46.835Z,15.3
2023-06-04T05:58:52.870Z,15.1
2023-06-04T06:08:58.898Z,15.1
2023-06-04T06:19:04.966Z,15.1
2023-06-04T06:29:10.993Z,15.1
2023-06-04T06:39:17.053Z,15.1
2023-06-04T06:49:23.082Z,15.1
2023-06-04T06:59:29.132Z,15.3
2023-06-04T07:09:35.174Z,15.1
2023-06-04T07:19:41.266Z,15.1
2023-06-04T07:29:47.281Z,15.1
2023-06-04T07:39:53.333Z,15.1
2023-06-04T07:50:03.104Z,15.1
2023-06-04T08:00:05.427Z,15.1
2023-06-04T08:10:11.456Z,15.1
2023-06-04T08:20:17.509Z,15.1
2023-06-04T08:30:23.529Z,15.1
2023-06-04T08:40:29.617Z,14.9
2023-06-04T08:50:35.639Z,14.9
2023-06-04T09:00:41.685Z,14.9
2023-06-04T09:10:47.716Z,14.9
2023-06-04T09:20:53.760Z,14.9
2023-06-04T09:30:59.827Z,14.9
2023-06-04T09:41:06.331Z,14.9
2023-06-04T09:51:11.913Z,15
2023-06-04T10:11:25.880Z,15
2023-06-04T10:31:38.035Z,15
2023-06-04T10:41:44.013Z,15
2023-06-04T10:51:50.065Z,15
2023-06-04T11:12:02.140Z,15
2023-06-04T11:22:08.168Z,15
2023-06-04T11:32:15.539Z,14.8
2023-06-04T11:42:20.277Z,14.8
2023-06-04T11:52:26.337Z,14.8
2023-06-04T12:02:32.461Z,14.8
2023-06-04T12:12:38.401Z,14.8
2023-06-04T12:22:44.453Z,14.8
2023-06-04T12:32:50.590Z,14.8
2023-06-04T12:42:56.573Z,14.8
2023-06-04T12:53:02.589Z,14.8
2023-06-04T13:03:08.717Z,14.8
2023-06-04T13:13:14.681Z,14.8
2023-06-04T13:23:20.735Z,14.8
2023-06-04T13:33:26.761Z,14.8
2023-06-04T13:43:32.810Z,14.6
2023-06-04T13:53:38.833Z,14.6
2023-06-04T14:03:44.993Z,14.6
2023-06-04T14:13:50.952Z,14.6
2023-06-04T14:23:57.034Z,14.6
2023-06-04T14:34:03.045Z,14.6
2023-06-04T14:44:09.067Z,14.6
2023-06-04T14:54:15.132Z,14.6
2023-06-04T15:04:21.164Z,14.6
2023-06-04T15:14:27.233Z,14.6
2023-06-04T15:34:39.281Z,14.5
2023-06-04T15:44:45.325Z,14.5
2023-06-04T15:54:51.377Z,14.5
2023-06-04T16:04:57.417Z,14.5
2023-06-04T16:15:03.501Z,14.5
2023-06-04T16:25:09.523Z,14.5
2023-06-04T16:35:15.576Z,14.5
2023-06-04T16:45:21.612Z,14.5
2023-06-04T16:55:27.846Z,14.5
2023-06-04T17:05:33.730Z,14.5
2023-06-04T17:15:39.761Z,14.3
2023-06-04T17:25:45.916Z,14.3
2023-06-04T17:35:51.839Z,14.3
2023-06-04T17:45:58.298Z,14.3
2023-06-04T17:56:03.910Z,14.3
2023-06-04T18:06:10.124Z,14.3
2023-06-04T18:16:16.055Z,14.3
2023-06-04T18:26:22.038Z,14.3
2023-06-04T18:36:28.091Z,14.5
2023-06-04T18:46:34.281Z,14.5
2023-06-04T18:56:40.214Z,14.5
2023-06-04T19:06:46.331Z,14.5
2023-06-04T19:16:52.361Z,14.5
2023-06-04T19:37:04.344Z,14.5
2023-06-04T19:47:10.716Z,14.5
2023-06-04T19:57:16.445Z,14.5
2023-06-04T20:07:22.529Z,14.5
2023-06-04T20:17:28.687Z,14.5
2023-06-04T20:27:34.615Z,14.5
2023-06-04T20:37:40.647Z,14.5
2023-06-04T20:47:46.731Z,14.5
2023-06-04T20:57:52.744Z,14.5
2023-06-04T21:08:01.359Z,14.5
2023-06-04T21:18:04.916Z,14.5
2023-06-04T21:28:10.874Z,14.5
2023-06-04T21:38:16.935Z,14.5
2023-06-04T21:48:23.052Z,14.5
2023-06-04T21:58:29.002Z,14.6
2023-06-04T22:08:35.036Z,14.6
2023-06-04T22:28:47.137Z,14.6
2023-06-04T22:38:53.186Z,14.6
2023-06-04T22:48:59.193Z,14.6
2023-06-04T22:59:05.269Z,14.6
2023-06-04T23:09:11.283Z,14.6
2023-06-04T23:19:17.764Z,14.6
2023-06-04T23:29:23.406Z,14.6
2023-06-04T23:39:29.447Z,14.6
2023-06-04T23:49:35.497Z,14.6
2023-06-04T23:59:41.512Z,14.6
